createdAt,value
2023-11-06T00:02:21.234Z,2.28
2023-11-06T00:04:48.181Z,1.90
2023-11-06T00:07:16.413Z,2.20
2023-11-06T00:09:43.277Z,2.08
2023-11-06T00:12:12.478Z,1.92
2023-11-06T00:14:39.364Z,1.50
2023-11-06T00:17:06.286Z,2.05
2023-11-06T00:19:33.190Z,1.90
2023-11-06T00:22:00.157Z,2.15
2023-11-06T00:24:27.374Z,1.90
2023-11-06T00:26:54.277Z,1.98
2023-11-06T00:29:21.161Z,2.60
2023-11-06T00:31:48.098Z,2.42
2023-11-06T00:34:15.813Z,2.67
2023-11-06T00:36:42.657Z,2.60
2023-11-06T00:39:09.717Z,2.08
2023-11-06T00:41:36.626Z,2.35
2023-11-06T00:44:04.401Z,2.15
2023-11-06T00:46:31.288Z,2.60
2023-11-06T00:48:58.376Z,2.33
2023-11-06T00:51:25.310Z,2.50
2023-11-06T00:53:52.195Z,2.20
2023-11-06T00:56:20.313Z,1.90
2023-11-06T00:58:47.643Z,2.00
2023-11-06T01:01:14.657Z,2.00
2023-11-06T01:03:41.633Z,2.10
2023-11-06T01:06:10.345Z,1.85
2023-11-06T01:08:37.561Z,1.88
2023-11-06T01:11:04.700Z,1.90
2023-11-06T01:13:31.588Z,2.05
2023-11-06T01:15:58.483Z,1.90
2023-11-06T01:18:25.791Z,1.48
2023-11-06T01:20:52.759Z,1.58
2023-11-06T01:23:19.611Z,1.58
2023-11-06T01:25:46.769Z,1.27
2023-11-06T01:28:13.697Z,1.10
2023-11-06T01:30:40.581Z,1.90
2023-11-06T01:33:07.557Z,1.38
2023-11-06T01:35:34.577Z,1.40
2023-11-06T01:38:04.410Z,1.65
2023-11-06T01:40:34.091Z,1.48
2023-11-06T01:43:08.400Z,1.90
2023-11-06T01:45:36.679Z,1.58
2023-11-06T01:48:07.320Z,2.00
2023-11-06T01:50:37.746Z,1.48
2023-11-06T01:53:10.500Z,1.45
2023-11-06T01:55:37.964Z,1.52
2023-11-06T01:58:04.817Z,1.60
2023-11-06T02:00:32.579Z,1.50
2023-11-06T02:03:01.247Z,1.83
2023-11-06T02:05:28.371Z,1.33
2023-11-06T02:07:55.731Z,1.63
2023-11-06T02:10:22.815Z,2.05
2023-11-06T02:12:49.677Z,1.83
2023-11-06T02:15:16.542Z,1.40
2023-11-06T02:17:46.328Z,1.65
2023-11-06T02:20:13.526Z,2.00
2023-11-06T02:22:44.669Z,1.40
2023-11-06T02:25:11.855Z,1.60
2023-11-06T02:27:39.970Z,1.55
2023-11-06T02:30:07.176Z,1.50
2023-11-06T02:32:34.055Z,1.35
2023-11-06T02:35:00.908Z,1.58
2023-11-06T02:37:27.920Z,1.20
2023-11-06T02:39:55.194Z,1.20
2023-11-06T02:42:22.192Z,1.45
2023-11-06T02:44:49.181Z,1.23
2023-11-06T02:47:16.269Z,1.70
2023-11-06T02:49:43.208Z,1.90
2023-11-06T02:52:10.082Z,1.20
2023-11-06T02:54:36.953Z,1.02
2023-11-06T02:57:05.767Z,1.23
2023-11-06T02:59:34.606Z,1.10
2023-11-06T03:02:03.151Z,0.98
2023-11-06T03:04:30.248Z,1.40
2023-11-06T03:06:57.145Z,1.23
2023-11-06T03:09:24.364Z,1.60
2023-11-06T03:11:51.523Z,1.23
2023-11-06T03:14:18.658Z,1.58
2023-11-06T03:16:45.686Z,1.45
2023-11-06T03:19:13.198Z,1.23
2023-11-06T03:21:40.175Z,1.10
2023-11-06T03:24:09.209Z,1.13
2023-11-06T03:26:36.202Z,1.15
2023-11-06T03:29:03.930Z,1.20
2023-11-06T03:31:30.846Z,1.17
2023-11-06T03:33:58.561Z,1.00
2023-11-06T03:36:25.470Z,1.23
2023-11-06T03:38:52.402Z,0.82
2023-11-06T03:41:19.596Z,1.20
2023-11-06T03:43:50.269Z,1.40
2023-11-06T03:46:17.221Z,1.02
2023-11-06T03:48:44.232Z,0.80
2023-11-06T03:51:11.206Z,1.13
2023-11-06T03:53:38.233Z,1.20
2023-11-06T03:56:05.355Z,1.60
2023-11-06T03:58:32.309Z,1.75
2023-11-06T04:00:59.138Z,1.42
2023-11-06T04:03:26.112Z,1.50
2023-11-06T04:05:54.006Z,1.33
2023-11-06T04:08:20.953Z,1.50
2023-11-06T04:10:49.251Z,1.25
2023-11-06T04:13:16.125Z,1.10
2023-11-06T04:15:43.040Z,1.13
2023-11-06T04:18:10.245Z,1.02
2023-11-06T04:20:37.782Z,1.05
2023-11-06T04:23:04.927Z,1.80
2023-11-06T04:25:31.757Z,0.82
2023-11-06T04:27:59.302Z,1.25
2023-11-06T04:30:26.188Z,1.00
2023-11-06T04:32:53.033Z,1.10
2023-11-06T04:35:20.047Z,1.55
2023-11-06T04:37:47.458Z,1.13
2023-11-06T04:40:14.391Z,1.42
2023-11-06T04:42:44.206Z,1.42
2023-11-06T04:45:11.218Z,1.23
2023-11-06T04:47:38.163Z,0.90
2023-11-06T04:50:05.321Z,0.90
2023-11-06T04:52:32.627Z,1.10
2023-11-06T04:54:59.593Z,1.13
2023-11-06T04:57:26.482Z,1.05
2023-11-06T04:59:53.287Z,1.08
2023-11-06T05:02:20.822Z,1.30
2023-11-06T05:04:47.901Z,1.02
2023-11-06T05:07:15.295Z,1.20
2023-11-06T05:09:43.891Z,1.00
2023-11-06T05:12:11.397Z,0.73
2023-11-06T05:14:38.255Z,1.05
2023-11-06T05:17:06.461Z,1.00
2023-11-06T05:19:38.615Z,0.90
2023-11-06T05:22:05.664Z,0.75
2023-11-06T05:24:33.461Z,0.98
2023-11-06T05:27:01.419Z,0.68
2023-11-06T05:29:28.517Z,0.85
2023-11-06T05:31:55.559Z,0.70
2023-11-06T05:34:23.069Z,0.90
2023-11-06T05:36:50.042Z,0.70
2023-11-06T05:39:16.931Z,0.63
2023-11-06T05:41:52.429Z,1.00
2023-11-06T05:44:19.311Z,0.68
2023-11-06T05:46:46.316Z,0.80
2023-11-06T05:49:13.255Z,1.08
2023-11-06T05:51:40.206Z,0.70
2023-11-06T05:54:07.642Z,0.60
2023-11-06T05:56:34.700Z,0.70
2023-11-06T05:59:04.484Z,0.75
2023-11-06T06:01:31.738Z,0.75
2023-11-06T06:03:59.182Z,0.95
2023-11-06T06:06:26.449Z,0.98
2023-11-06T06:08:54.041Z,0.90
2023-11-06T06:11:21.165Z,0.75
2023-11-06T06:13:48.411Z,1.08
2023-11-06T06:16:15.298Z,0.95
2023-11-06T06:18:42.746Z,1.08
2023-11-06T06:21:09.717Z,1.00
2023-11-06T06:23:37.533Z,0.90
2023-11-06T06:26:04.568Z,0.82
2023-11-06T06:28:31.445Z,0.93
2023-11-06T06:30:58.356Z,0.82
2023-11-06T06:33:25.281Z,0.77
2023-11-06T06:35:52.198Z,0.50
2023-11-06T06:38:19.584Z,0.55
2023-11-06T06:40:50.522Z,0.70
2023-11-06T06:43:18.076Z,0.50
2023-11-06T06:45:44.957Z,0.75
2023-11-06T06:48:12.007Z,0.88
2023-11-06T06:50:39.012Z,0.80
2023-11-06T06:53:05.940Z,0.90
2023-11-06T06:55:32.848Z,0.43
2023-11-06T06:58:01.228Z,0.60
2023-11-06T07:00:28.575Z,0.80
2023-11-06T07:02:55.642Z,0.90
2023-11-06T07:05:22.868Z,1.05
2023-11-06T07:07:49.949Z,0.88
2023-11-06T07:10:16.985Z,1.27
2023-11-06T07:12:43.858Z,1.27
2023-11-06T07:15:11.406Z,1.25
2023-11-06T07:17:39.272Z,1.73
2023-11-06T07:20:06.471Z,1.52
2023-11-06T07:22:33.692Z,1.17
2023-11-06T07:25:01.676Z,1.13
2023-11-06T07:27:28.621Z,1.17
2023-11-06T07:29:55.499Z,1.23
2023-11-06T07:32:22.496Z,1.10
2023-11-06T07:34:51.143Z,0.95
2023-11-06T07:37:18.344Z,1.23
2023-11-06T07:39:45.257Z,1.25
2023-11-06T07:42:14.993Z,0.43
2023-11-06T07:44:42.355Z,1.08
2023-11-06T07:47:09.775Z,1.08
2023-11-06T07:49:36.677Z,0.88
2023-11-06T07:52:09.162Z,0.98
2023-11-06T07:54:38.634Z,0.90
2023-11-06T07:57:05.733Z,1.02
2023-11-06T07:59:33.093Z,0.93
2023-11-06T08:02:00.905Z,1.20
2023-11-06T08:04:28.667Z,1.42
2023-11-06T08:06:55.529Z,1.60
2023-11-06T08:09:22.339Z,1.13
2023-11-06T08:11:49.239Z,1.55
2023-11-06T08:14:16.189Z,1.17
2023-11-06T08:16:45.769Z,1.63
2023-11-06T08:19:12.897Z,1.17
2023-11-06T08:21:39.952Z,1.58
2023-11-06T08:24:07.083Z,1.40
2023-11-06T08:26:33.963Z,1.17
2023-11-06T08:29:01.002Z,1.00
2023-11-06T08:31:27.876Z,1.05
2023-11-06T08:33:54.762Z,1.08
2023-11-06T08:36:22.214Z,1.88
2023-11-06T08:38:49.087Z,1.30
2023-11-06T08:41:15.974Z,0.95
2023-11-06T08:43:42.851Z,1.10
2023-11-06T08:46:09.811Z,1.20
2023-11-06T08:48:36.812Z,1.10
2023-11-06T08:51:03.779Z,1.13
2023-11-06T08:53:31.344Z,0.70
2023-11-06T08:55:58.221Z,1.52
2023-11-06T08:58:26.411Z,0.95
2023-11-06T09:00:53.303Z,1.00
2023-11-06T09:03:20.222Z,0.95
2023-11-06T09:05:50.366Z,0.88
2023-11-06T09:08:18.988Z,0.80
2023-11-06T09:10:46.197Z,0.63
2023-11-06T09:13:14.582Z,1.00
2023-11-06T09:15:42.055Z,0.70
2023-11-06T09:18:09.033Z,0.70
2023-11-06T09:20:36.061Z,0.95
2023-11-06T09:23:03.184Z,1.13
2023-11-06T09:25:30.209Z,0.80
2023-11-06T09:27:57.122Z,1.10
2023-11-06T09:30:23.982Z,0.70
2023-11-06T09:32:50.931Z,0.93
2023-11-06T09:35:17.865Z,1.15
2023-11-06T09:37:44.837Z,0.80
2023-11-06T09:40:19.755Z,0.90
2023-11-06T09:42:46.903Z,1.33
2023-11-06T09:45:13.870Z,1.00
2023-11-06T09:47:47.729Z,1.52
2023-11-06T09:50:17.205Z,0.90
2023-11-06T09:52:44.408Z,0.90
2023-11-06T09:55:12.837Z,0.95
2023-11-06T09:57:39.957Z,0.80
2023-11-06T10:00:10.341Z,0.90
2023-11-06T10:02:37.332Z,0.90
2023-11-06T10:05:12.379Z,1.00
2023-11-06T10:07:42.167Z,0.95
2023-11-06T10:10:13.351Z,0.95
2023-11-06T10:12:40.203Z,0.70
2023-11-06T10:15:07.763Z,0.98
2023-11-06T10:17:35.866Z,0.70
2023-11-06T10:20:14.956Z,0.70
2023-11-06T10:22:55.494Z,0.70
2023-11-06T10:25:26.181Z,0.95
2023-11-06T10:27:53.068Z,0.75
2023-11-06T10:30:19.974Z,0.90
2023-11-06T10:32:46.938Z,0.90
2023-11-06T10:35:15.041Z,1.10
2023-11-06T10:37:46.158Z,0.90
2023-11-06T10:40:19.993Z,0.73
2023-11-06T10:42:48.335Z,1.00
2023-11-06T10:45:16.577Z,1.10
2023-11-06T10:47:47.806Z,0.80
2023-11-06T10:50:16.189Z,0.80
2023-11-06T10:52:45.950Z,1.25
2023-11-06T10:55:22.811Z,0.98
2023-11-06T10:57:56.994Z,0.90
2023-11-06T11:00:25.059Z,0.50
2023-11-06T11:02:53.013Z,1.30
2023-11-06T11:05:24.720Z,0.60
2023-11-06T11:07:52.692Z,0.63
2023-11-06T11:10:20.350Z,0.70
2023-11-06T11:12:50.032Z,0.70
2023-11-06T11:15:24.747Z,0.60
2023-11-06T11:17:58.406Z,0.95
2023-11-06T11:20:25.929Z,0.68
2023-11-06T11:23:12.286Z,1.02
2023-11-06T11:25:58.028Z,0.80
2023-11-06T11:28:28.958Z,0.80
2023-11-06T11:31:16.159Z,0.60
2023-11-06T11:33:53.888Z,0.75
2023-11-06T11:36:31.395Z,0.57
2023-11-06T11:39:00.240Z,0.65
2023-11-06T11:41:27.859Z,0.75
2023-11-06T11:44:09.973Z,0.60
2023-11-06T11:46:38.417Z,0.60
2023-11-06T11:49:05.539Z,0.70
2023-11-06T11:51:48.568Z,0.60
2023-11-06T11:54:34.382Z,0.77
2023-11-06T11:57:03.844Z,0.50
2023-11-06T11:59:37.705Z,0.85
2023-11-06T12:02:06.424Z,0.50
2023-11-06T12:04:33.367Z,0.55
2023-11-06T12:07:00.238Z,0.60
2023-11-06T12:09:27.472Z,0.70
2023-11-06T12:11:54.440Z,0.60
2023-11-06T12:14:21.530Z,0.38
2023-11-06T12:16:49.060Z,0.50
2023-11-06T12:19:16.164Z,0.60
2023-11-06T12:21:43.563Z,0.80
2023-11-06T12:24:10.754Z,0.75
2023-11-06T12:26:50.891Z,0.68
2023-11-06T12:29:27.781Z,0.68
2023-11-06T12:31:55.343Z,0.60
2023-11-06T12:34:22.566Z,0.63
2023-11-06T12:36:49.602Z,0.70
2023-11-06T12:39:27.721Z,0.75
2023-11-06T12:41:58.313Z,0.95
2023-11-06T12:44:41.554Z,0.73
2023-11-06T12:47:10.881Z,0.63
2023-11-06T12:49:51.131Z,0.77
2023-11-06T12:52:22.382Z,0.75
2023-11-06T12:54:50.159Z,0.75
2023-11-06T12:57:17.899Z,0.70
2023-11-06T12:59:45.130Z,0.45
2023-11-06T13:02:12.902Z,0.70
2023-11-06T13:04:40.288Z,0.80
2023-11-06T13:07:07.370Z,0.80
2023-11-06T13:09:35.068Z,0.60
2023-11-06T13:12:02.411Z,0.80
2023-11-06T13:14:29.574Z,0.57
2023-11-06T13:16:56.799Z,0.70
2023-11-06T13:19:30.105Z,0.60
2023-11-06T13:21:59.484Z,0.47
2023-11-06T13:24:29.466Z,1.05
2023-11-06T13:26:57.976Z,0.60
2023-11-06T13:29:25.978Z,0.60
2023-11-06T13:31:53.064Z,0.40
2023-11-06T13:34:21.491Z,0.60
2023-11-06T13:36:53.663Z,0.68
2023-11-06T13:39:26.521Z,0.52
2023-11-06T13:41:59.443Z,0.68
2023-11-06T13:44:26.436Z,0.70
2023-11-06T13:46:54.016Z,1.15
2023-11-06T13:49:22.929Z,0.77
2023-11-06T13:51:50.471Z,0.60
2023-11-06T13:54:30.577Z,0.70
2023-11-06T13:56:57.456Z,0.63
2023-11-06T13:59:30.325Z,0.60
2023-11-06T14:01:58.398Z,0.50
2023-11-06T14:04:26.133Z,0.63
2023-11-06T14:06:56.394Z,0.57
2023-11-06T14:09:48.064Z,0.50
2023-11-06T14:12:15.148Z,0.52
2023-11-06T14:14:42.262Z,0.30
2023-11-06T14:17:11.348Z,1.10
2023-11-06T14:19:41.655Z,0.40
2023-11-06T14:22:09.923Z,0.32
2023-11-06T14:24:38.182Z,0.47
2023-11-06T14:27:07.019Z,0.50
2023-11-06T14:29:34.183Z,0.43
2023-11-06T14:32:01.164Z,0.40
2023-11-06T14:34:28.710Z,0.52
2023-11-06T14:36:55.666Z,0.47
2023-11-06T14:39:22.626Z,0.50
2023-11-06T14:41:49.531Z,0.65
2023-11-06T14:44:19.606Z,0.50
2023-11-06T14:46:46.652Z,0.43
2023-11-06T14:49:13.832Z,0.52
2023-11-06T14:51:40.820Z,0.50
2023-11-06T14:54:08.190Z,0.40
2023-11-06T14:56:35.451Z,0.57
2023-11-06T14:59:03.477Z,0.70
2023-11-06T15:01:30.521Z,0.32
2023-11-06T15:03:57.463Z,0.88
2023-11-06T15:06:25.215Z,0.50
2023-11-06T15:08:52.532Z,0.80
2023-11-06T15:11:20.174Z,0.80
2023-11-06T15:13:47.658Z,0.60
2023-11-06T15:16:14.961Z,0.40
2023-11-06T15:18:44.167Z,0.75
2023-11-06T15:21:13.294Z,0.63
2023-11-06T15:23:40.538Z,0.60
2023-11-06T15:26:07.446Z,0.80
2023-11-06T15:28:35.128Z,0.70
2023-11-06T15:31:04.090Z,0.60
2023-11-06T15:33:31.371Z,0.50
2023-11-06T15:36:00.699Z,0.35
2023-11-06T15:38:29.165Z,0.50
2023-11-06T15:40:59.176Z,0.40
2023-11-06T15:43:27.504Z,0.68
2023-11-06T15:45:54.500Z,0.65
2023-11-06T15:48:21.592Z,0.52
2023-11-06T15:50:49.597Z,0.80
2023-11-06T15:53:16.941Z,0.60
2023-11-06T15:55:46.279Z,0.60
2023-11-06T15:58:13.932Z,0.50
2023-11-06T16:00:41.751Z,0.50
2023-11-06T16:03:08.837Z,0.63
2023-11-06T16:05:36.912Z,0.50
2023-11-06T16:08:04.118Z,0.60
2023-11-06T16:10:33.813Z,0.60
2023-11-06T16:13:04.732Z,0.30
2023-11-06T16:15:31.931Z,0.73
2023-11-06T16:17:59.140Z,0.50
2023-11-06T16:20:27.584Z,0.68
2023-11-06T16:22:55.982Z,0.85
2023-11-06T16:25:23.078Z,0.70
2023-11-06T16:27:50.006Z,0.82
2023-11-06T16:30:16.904Z,0.55
2023-11-06T16:32:44.013Z,0.80
2023-11-06T16:35:11.216Z,0.70
2023-11-06T16:37:38.827Z,0.77
2023-11-06T16:40:08.067Z,0.80
2023-11-06T16:42:37.157Z,0.85
2023-11-06T16:45:05.443Z,1.00
2023-11-06T16:47:32.582Z,0.95
2023-11-06T16:50:00.458Z,0.98
2023-11-06T16:52:27.435Z,1.00
2023-11-06T16:54:54.624Z,0.80
2023-11-06T16:57:21.535Z,0.85
2023-11-06T16:59:49.923Z,0.60
2023-11-06T17:02:17.989Z,0.63
2023-11-06T17:04:45.229Z,0.60
2023-11-06T17:07:15.660Z,0.80
2023-11-06T17:09:45.767Z,1.00
2023-11-06T17:12:15.199Z,1.10
2023-11-06T17:14:42.134Z,0.80
2023-11-06T17:17:17.242Z,1.00
2023-11-06T17:19:44.151Z,1.20
2023-11-06T17:22:11.050Z,2.45
2023-11-06T17:24:37.910Z,1.88
2023-11-06T17:27:05.022Z,2.38
2023-11-06T17:29:34.985Z,1.60
2023-11-06T17:32:02.010Z,1.50
2023-11-06T17:34:28.930Z,2.22
2023-11-06T17:36:55.835Z,1.60
2023-11-06T17:39:23.117Z,1.55
2023-11-06T17:41:50.084Z,1.17
2023-11-06T17:44:17.038Z,1.40
2023-11-06T17:46:45.102Z,1.80
2023-11-06T17:49:12.025Z,1.42
2023-11-06T17:51:39.007Z,1.45
2023-11-06T17:54:07.180Z,1.63
2023-11-06T17:56:34.203Z,1.80
2023-11-06T17:59:02.402Z,2.05
2023-11-06T18:01:29.429Z,2.03
2023-11-06T18:03:57.440Z,2.05
2023-11-06T18:06:25.222Z,2.58
2023-11-06T18:08:52.162Z,1.90
2023-11-06T18:11:19.557Z,2.10
2023-11-06T18:13:46.866Z,2.10
2023-11-06T18:16:13.759Z,2.58
2023-11-06T18:18:40.713Z,2.50
2023-11-06T18:21:07.891Z,2.20
2023-11-06T18:23:37.438Z,3.00
2023-11-06T18:26:04.638Z,2.80
2023-11-06T18:28:32.166Z,3.65
2023-11-06T18:30:59.076Z,3.63
2023-11-06T18:33:26.023Z,3.40
2023-11-06T18:35:53.125Z,3.30
2023-11-06T18:38:20.010Z,2.90
2023-11-06T18:40:48.252Z,2.75
2023-11-06T18:43:15.165Z,2.47
2023-11-06T18:45:42.040Z,2.72
2023-11-06T18:48:09.939Z,2.45
2023-11-06T18:50:36.909Z,2.40
2023-11-06T18:53:10.353Z,2.42
2023-11-06T18:55:38.461Z,2.50
2023-11-06T18:58:07.597Z,2.03
2023-11-06T19:00:35.576Z,2.28
2023-11-06T19:03:02.604Z,2.50
2023-11-06T19:05:29.631Z,2.50
2023-11-06T19:07:56.650Z,2.10
2023-11-06T19:10:23.556Z,1.95
2023-11-06T19:12:50.863Z,3.03
2023-11-06T19:15:18.772Z,2.28
2023-11-06T19:17:46.018Z,2.33
2023-11-06T19:20:13.048Z,2.10
2023-11-06T19:22:39.970Z,2.72
2023-11-06T19:25:07.477Z,2.25
2023-11-06T19:27:34.721Z,2.20
2023-11-06T19:30:01.673Z,2.00
2023-11-06T19:32:28.618Z,1.92
2023-11-06T19:34:56.081Z,1.75
2023-11-06T19:37:22.908Z,2.10
2023-11-06T19:39:49.745Z,2.40
2023-11-06T19:42:19.391Z,2.00
2023-11-06T19:44:46.580Z,2.35
2023-11-06T19:47:13.574Z,2.60
2023-11-06T19:49:40.464Z,2.20
2023-11-06T19:52:07.448Z,2.55
2023-11-06T19:54:34.351Z,2.13
2023-11-06T19:57:01.253Z,2.08
2023-11-06T19:59:41.237Z,2.40
2023-11-06T20:02:15.050Z,2.15
2023-11-06T20:04:42.392Z,2.22
2023-11-06T20:07:10.731Z,2.60
2023-11-06T20:09:40.538Z,2.60
2023-11-06T20:12:07.549Z,2.30
2023-11-06T20:14:34.541Z,3.30
2023-11-06T20:17:02.541Z,3.13
2023-11-06T20:19:29.546Z,3.83
2023-11-06T20:21:56.518Z,4.70
2023-11-06T20:24:23.437Z,4.82
2023-11-06T20:26:50.430Z,4.30
2023-11-06T20:29:17.341Z,3.17
2023-11-06T20:31:44.201Z,3.15
2023-11-06T20:34:11.174Z,2.67
2023-11-06T20:36:41.636Z,2.20
2023-11-06T20:39:08.489Z,2.30
2023-11-06T20:41:35.433Z,1.88
2023-11-06T20:44:02.328Z,1.90
2023-11-06T20:46:29.398Z,2.50
2023-11-06T20:48:56.329Z,2.25
2023-11-06T20:51:23.800Z,2.10
2023-11-06T20:53:50.764Z,2.70
2023-11-06T20:56:17.691Z,2.38
2023-11-06T20:58:44.653Z,2.20
2023-11-06T21:01:11.531Z,3.05
2023-11-06T21:03:38.500Z,3.13
2023-11-06T21:06:05.959Z,3.63
2023-11-06T21:08:34.370Z,3.20
2023-11-06T21:11:01.253Z,3.92
2023-11-06T21:13:28.134Z,3.60
2023-11-06T21:15:56.034Z,3.75
2023-11-06T21:18:23.275Z,3.40
2023-11-06T21:20:50.518Z,4.03
2023-11-06T21:23:17.623Z,4.00
2023-11-06T21:25:44.437Z,4.13
2023-11-06T21:28:12.147Z,3.08
2023-11-06T21:30:39.225Z,3.70
2023-11-06T21:33:06.380Z,3.92
2023-11-06T21:35:33.433Z,3.88
2023-11-06T21:38:01.724Z,4.15
2023-11-06T21:40:28.783Z,4.20
2023-11-06T21:42:55.684Z,4.03
2023-11-06T21:45:22.603Z,3.55
2023-11-06T21:47:49.612Z,3.75
2023-11-06T21:50:16.874Z,4.00
2023-11-06T21:52:43.828Z,3.55
2023-11-06T21:55:13.556Z,3.50
2023-11-06T21:57:42.211Z,3.90
2023-11-06T22:00:09.800Z,3.42
2023-11-06T22:02:37.041Z,2.40
2023-11-06T22:05:09.917Z,2.22
2023-11-06T22:07:47.254Z,2.08
2023-11-06T22:10:19.737Z,2.45
2023-11-06T22:12:51.887Z,2.72
2023-11-06T22:15:18.748Z,2.25
2023-11-06T22:17:47.100Z,2.45
2023-11-06T22:20:14.841Z,2.25
2023-11-06T22:22:41.954Z,2.45
2023-11-06T22:25:09.152Z,2.72
2023-11-06T22:27:37.960Z,2.95
2023-11-06T22:30:05.702Z,2.03
2023-11-06T22:32:32.609Z,2.50
2023-11-06T22:34:59.668Z,2.50
2023-11-06T22:37:26.602Z,2.35
2023-11-06T22:39:53.445Z,2.17
2023-11-06T22:42:20.315Z,1.85
2023-11-06T22:44:47.420Z,1.90
2023-11-06T22:47:14.315Z,2.15
2023-11-06T22:49:41.312Z,2.03
2023-11-06T22:52:08.200Z,1.60
2023-11-06T22:54:35.533Z,1.88
2023-11-06T22:57:02.496Z,2.25
2023-11-06T22:59:29.453Z,1.70
2023-11-06T23:01:56.373Z,1.60
2023-11-06T23:04:23.347Z,1.35
2023-11-06T23:06:50.487Z,1.40
2023-11-06T23:09:18.048Z,1.23
2023-11-06T23:11:45.088Z,1.98
2023-11-06T23:14:11.976Z,1.65
2023-11-06T23:16:38.842Z,1.20
2023-11-06T23:19:05.723Z,1.30
2023-11-06T23:21:32.619Z,1.60
2023-11-06T23:23:59.787Z,1.15
2023-11-06T23:26:33.015Z,1.45
2023-11-06T23:29:03.863Z,1.30
2023-11-06T23:31:30.700Z,1.77
2023-11-06T23:33:57.708Z,1.60
2023-11-06T23:36:24.606Z,1.17
2023-11-06T23:38:51.456Z,1.50
2023-11-06T23:41:19.889Z,1.40
2023-11-06T23:43:47.818Z,1.52
2023-11-06T23:46:14.656Z,1.63
2023-11-06T23:48:41.476Z,1.48
2023-11-06T23:54:20.186Z,1.70
2023-11-06T23:56:47.932Z,1.70
2023-11-06T23:59:15.916Z,1.48
